createdAt,value
2017-11-06T00:00:22.695Z,99.30
2017-11-06T00:03:32.691Z,99.40
2017-11-06T00:06:42.798Z,99.70
2017-11-06T00:09:53.083Z,99.30
2017-11-06T00:13:03.139Z,99.30
2017-11-06T00:16:13.151Z,99.40
2017-11-06T00:19:23.107Z,99.50
2017-11-06T00:22:33.827Z,99.50
2017-11-06T00:25:44.094Z,99.30
2017-11-06T00:28:54.227Z,99.10
2017-11-06T00:32:04.831Z,99.40
2017-11-06T00:35:15.356Z,99.30
2017-11-06T00:38:25.160Z,99.50
2017-11-06T00:41:35.176Z,99.50
2017-11-06T00:44:45.375Z,99.40
2017-11-06T00:47:55.203Z,99.30
2017-11-06T00:51:06.343Z,99.50
2017-11-06T00:54:17.458Z,99.30
2017-11-06T00:57:27.726Z,99.30
2017-11-06T01:00:38.232Z,99.50
2017-11-06T01:03:48.083Z,99.50
2017-11-06T01:06:57.900Z,99.50
2017-11-06T01:10:07.964Z,99.40
2017-11-06T01:13:18.136Z,99.50
2017-11-06T01:16:33.628Z,99.50
2017-11-06T01:19:43.840Z,99.60
2017-11-06T01:22:53.651Z,99.70
2017-11-06T01:26:03.495Z,99.60
2017-11-06T01:29:14.116Z,99.10
2017-11-06T01:32:24.276Z,99.30
2017-11-06T01:35:34.100Z,99.50
2017-11-06T01:38:44.532Z,99.50
2017-11-06T01:41:54.070Z,99.40
2017-11-06T01:45:04.745Z,99.50
2017-11-06T01:48:15.009Z,99.60
2017-11-06T01:51:24.954Z,99.50
2017-11-06T01:54:35.456Z,99.60
2017-11-06T01:57:45.150Z,99.50
2017-11-06T02:00:54.911Z,99.50
2017-11-06T02:04:04.877Z,99.30
2017-11-06T02:07:15.113Z,99.30
2017-11-06T02:10:26.124Z,99.40
2017-11-06T02:13:36.570Z,99.30
2017-11-06T02:16:46.496Z,99.50
2017-11-06T02:19:56.692Z,99.30
2017-11-06T02:23:06.848Z,99.20
2017-11-06T02:26:16.587Z,99.10
2017-11-06T02:29:26.481Z,99.20
2017-11-06T02:32:36.577Z,99.00
2017-11-06T02:35:46.586Z,99.20
2017-11-06T02:38:56.488Z,99.30
2017-11-06T02:42:06.551Z,99.20
2017-11-06T02:45:17.432Z,99.50
2017-11-06T02:48:27.714Z,99.50
2017-11-06T02:51:39.627Z,99.50
2017-11-06T02:54:50.332Z,99.50
2017-11-06T02:58:00.100Z,99.60
2017-11-06T03:01:10.236Z,99.40
2017-11-06T03:04:20.555Z,99.40
2017-11-06T03:07:30.557Z,99.30
2017-11-06T03:10:40.291Z,99.20
2017-11-06T03:13:50.718Z,99.20
2017-11-06T03:17:00.968Z,99.10
2017-11-06T03:20:11.340Z,99.20
2017-11-06T03:23:21.924Z,99.20
2017-11-06T03:26:32.305Z,99.40
2017-11-06T03:29:42.296Z,99.20
2017-11-06T03:32:53.032Z,99.40
2017-11-06T03:36:02.800Z,99.40
2017-11-06T03:39:12.764Z,99.40
2017-11-06T03:42:22.720Z,99.30
2017-11-06T03:45:32.594Z,99.40
2017-11-06T03:48:43.293Z,99.40
2017-11-06T03:51:53.190Z,99.20
2017-11-06T03:55:03.123Z,99.30
2017-11-06T03:58:14.120Z,99.10
2017-11-06T04:01:25.176Z,99.20
2017-11-06T04:04:35.256Z,99.20
2017-11-06T04:07:45.684Z,99.10
2017-11-06T04:10:56.283Z,99.10
2017-11-06T04:14:06.081Z,99.20
2017-11-06T04:17:16.272Z,99.10
2017-11-06T04:20:26.700Z,99.30
2017-11-06T04:23:36.853Z,99.30
2017-11-06T04:26:46.933Z,99.40
2017-11-06T04:29:57.092Z,99.00
2017-11-06T04:33:07.052Z,98.90
2017-11-06T04:36:17.601Z,99.20
2017-11-06T04:39:28.465Z,99.20
2017-11-06T04:42:38.293Z,99.20
2017-11-06T04:45:48.236Z,99.10
2017-11-06T04:48:57.992Z,99.00
2017-11-06T04:52:08.160Z,98.90
2017-11-06T04:55:18.152Z,99.10
2017-11-06T04:58:28.251Z,99.00
2017-11-06T05:01:38.888Z,98.90
2017-11-06T05:04:49.044Z,98.90
2017-11-06T05:07:58.918Z,99.00
2017-11-06T05:11:08.845Z,99.00
2017-11-06T05:14:19.057Z,98.90
2017-11-06T05:17:28.825Z,99.10
2017-11-06T05:20:38.877Z,99.00
2017-11-06T05:23:48.956Z,99.10
2017-11-06T05:26:58.977Z,99.10
2017-11-06T05:30:08.897Z,99.00
2017-11-06T05:33:18.700Z,99.10
2017-11-06T05:36:29.364Z,99.20
2017-11-06T05:39:39.649Z,99.20
2017-11-06T05:42:49.667Z,99.00
2017-11-06T05:45:59.529Z,99.00
2017-11-06T05:49:10.181Z,99.10
2017-11-06T05:52:20.069Z,99.10
2017-11-06T05:55:29.959Z,99.10
2017-11-06T05:58:41.204Z,99.20
2017-11-06T06:01:52.069Z,99.10
2017-11-06T06:05:02.279Z,99.10
2017-11-06T06:08:12.220Z,98.70
2017-11-06T06:11:22.216Z,98.70
2017-11-06T06:14:32.271Z,98.90
2017-11-06T06:17:42.301Z,98.70
2017-11-06T06:20:52.397Z,99.00
2017-11-06T06:24:02.267Z,99.00
2017-11-06T06:27:12.552Z,99.20
2017-11-06T06:30:22.409Z,98.80
2017-11-06T06:33:33.037Z,98.80
2017-11-06T06:36:43.436Z,98.90
2017-11-06T06:39:53.332Z,98.80
2017-11-06T06:43:03.170Z,98.70
2017-11-06T06:46:13.275Z,98.60
2017-11-06T06:49:23.882Z,98.80
2017-11-06T06:52:33.811Z,99.00
2017-11-06T06:55:43.769Z,98.70
2017-11-06T06:58:54.090Z,98.70
2017-11-06T07:02:04.464Z,98.60
2017-11-06T07:05:14.767Z,98.60
2017-11-06T07:08:24.788Z,98.70
2017-11-06T07:11:34.370Z,98.70
2017-11-06T07:14:44.863Z,98.60
2017-11-06T07:17:54.897Z,98.50
2017-11-06T07:21:05.148Z,98.60
2017-11-06T07:24:15.339Z,98.70
2017-11-06T07:27:25.360Z,98.60
2017-11-06T07:30:35.904Z,98.90
2017-11-06T07:33:45.966Z,98.20
2017-11-06T07:36:55.853Z,98.30
2017-11-06T07:40:06.164Z,98.50
2017-11-06T07:43:16.160Z,98.70
2017-11-06T07:46:26.411Z,98.50
2017-11-06T07:49:36.713Z,98.50
2017-11-06T07:52:47.524Z,98.30
2017-11-06T07:55:57.878Z,98.30
2017-11-06T07:59:08.249Z,98.50
2017-11-06T08:02:18.809Z,98.40
2017-11-06T08:05:28.837Z,98.40
2017-11-06T08:08:38.838Z,98.60
2017-11-06T08:11:49.648Z,97.80
2017-11-06T08:15:00.116Z,97.80
2017-11-06T08:18:10.930Z,98.00
2017-11-06T08:21:21.099Z,98.00
2017-11-06T08:24:31.287Z,97.70
2017-11-06T08:27:41.316Z,97.70
2017-11-06T08:30:51.333Z,98.00
2017-11-06T08:34:01.396Z,98.00
2017-11-06T08:37:11.439Z,97.90
2017-11-06T08:40:22.065Z,97.80
2017-11-06T08:43:32.987Z,97.80
2017-11-06T08:46:43.249Z,97.80
2017-11-06T08:49:53.411Z,97.40
2017-11-06T08:53:03.216Z,97.60
2017-11-06T08:56:13.317Z,97.50
2017-11-06T08:59:23.206Z,98.00
2017-11-06T09:02:32.960Z,97.30
2017-11-06T09:05:42.720Z,97.20
2017-11-06T09:08:52.523Z,97.10
2017-11-06T09:12:02.459Z,96.90
2017-11-06T09:15:12.224Z,96.80
2017-11-06T09:18:22.091Z,96.60
2017-11-06T09:21:32.023Z,96.60
2017-11-06T09:24:41.956Z,96.80
2017-11-06T09:27:51.950Z,96.60
2017-11-06T09:31:02.204Z,96.80
2017-11-06T09:34:12.092Z,96.50
2017-11-06T09:37:22.244Z,96.30
2017-11-06T09:40:32.136Z,96.40
2017-11-06T09:43:42.198Z,96.60
2017-11-06T09:46:52.213Z,96.50
2017-11-06T09:50:02.043Z,96.70
2017-11-06T09:53:12.814Z,96.40
2017-11-06T09:56:22.547Z,96.40
2017-11-06T09:59:32.607Z,95.90
2017-11-06T10:02:42.352Z,95.80
2017-11-06T10:05:52.459Z,95.80
2017-11-06T10:09:02.348Z,95.50
2017-11-06T10:12:12.236Z,96.00
2017-11-06T10:15:23.270Z,95.20
2017-11-06T10:18:33.702Z,95.20
2017-11-06T10:21:43.638Z,95.80
2017-11-06T10:24:53.960Z,95.70
2017-11-06T10:28:04.892Z,94.50
2017-11-06T10:31:15.637Z,94.50
2017-11-06T10:34:25.683Z,94.80
2017-11-06T10:37:35.900Z,95.00
2017-11-06T10:40:46.308Z,94.80
2017-11-06T10:43:56.859Z,94.80
2017-11-06T10:47:07.454Z,94.70
2017-11-06T10:50:18.427Z,94.70
2017-11-06T10:53:28.947Z,94.70
2017-11-06T10:56:39.875Z,95.20
2017-11-06T10:59:50.048Z,94.90
2017-11-06T11:03:00.373Z,94.20
2017-11-06T11:06:10.339Z,94.20
2017-11-06T11:09:20.789Z,94.30
2017-11-06T11:12:30.660Z,94.50
2017-11-06T11:15:42.731Z,94.80
2017-11-06T11:18:53.087Z,94.90
2017-11-06T11:22:03.860Z,95.20
2017-11-06T11:25:14.040Z,94.00
2017-11-06T11:28:23.863Z,94.80
2017-11-06T11:31:33.656Z,94.60
2017-11-06T11:34:43.727Z,94.20
2017-11-06T11:37:53.165Z,94.40
2017-11-06T11:41:02.998Z,94.40
2017-11-06T11:44:13.384Z,94.50
2017-11-06T11:47:23.317Z,94.30
2017-11-06T11:50:33.156Z,94.40
2017-11-06T11:53:43.014Z,94.10
2017-11-06T11:56:53.955Z,94.40
2017-11-06T12:00:03.599Z,94.40
2017-11-06T12:03:13.934Z,94.20
2017-11-06T12:06:24.104Z,94.20
2017-11-06T12:09:34.802Z,94.00
2017-11-06T12:12:45.247Z,94.00
2017-11-06T12:15:55.490Z,94.50
2017-11-06T12:19:05.255Z,94.50
2017-11-06T12:22:15.112Z,94.20
2017-11-06T12:25:25.236Z,94.50
2017-11-06T12:28:35.336Z,94.10
2017-11-06T12:31:45.333Z,94.40
2017-11-06T12:34:56.549Z,94.60
2017-11-06T12:38:07.068Z,94.60
2017-11-06T12:41:17.118Z,94.60
2017-11-06T12:44:27.184Z,95.00
2017-11-06T12:47:37.576Z,94.90
2017-11-06T12:50:47.564Z,94.30
2017-11-06T12:53:57.938Z,94.40
2017-11-06T12:57:08.016Z,94.50
2017-11-06T13:00:18.136Z,94.20
2017-11-06T13:03:29.215Z,93.90
2017-11-06T13:06:39.767Z,93.90
2017-11-06T13:09:49.676Z,93.90
2017-11-06T13:12:59.872Z,93.80
2017-11-06T13:16:10.001Z,93.80
2017-11-06T13:19:20.184Z,93.80
2017-11-06T13:22:30.973Z,93.50
2017-11-06T13:25:41.596Z,93.50
2017-11-06T13:28:51.530Z,92.50
2017-11-06T13:32:02.219Z,92.70
2017-11-06T13:35:12.061Z,93.00
2017-11-06T13:38:22.371Z,93.40
2017-11-06T13:41:32.174Z,93.30
2017-11-06T13:44:42.314Z,93.00
2017-11-06T13:47:52.976Z,93.10
2017-11-06T13:51:03.724Z,93.30
2017-11-06T13:54:14.087Z,93.20
2017-11-06T13:57:24.411Z,93.40
2017-11-06T14:00:35.036Z,93.80
2017-11-06T14:03:45.190Z,93.70
2017-11-06T14:06:55.242Z,93.90
2017-11-06T14:10:05.336Z,93.30
2017-11-06T14:13:15.535Z,93.80
2017-11-06T14:16:25.747Z,92.80
2017-11-06T14:19:36.081Z,93.20
2017-11-06T14:22:46.350Z,93.10
2017-11-06T14:25:56.309Z,93.30
2017-11-06T14:29:06.384Z,93.40
2017-11-06T14:32:16.350Z,93.10
2017-11-06T14:35:26.683Z,93.20
2017-11-06T14:38:37.949Z,93.60
2017-11-06T14:41:48.582Z,93.80
2017-11-06T14:44:58.449Z,93.50
2017-11-06T14:48:08.716Z,93.30
2017-11-06T14:51:18.502Z,93.50
2017-11-06T14:54:28.412Z,93.70
2017-11-06T14:57:39.117Z,94.30
2017-11-06T15:00:49.355Z,94.30
2017-11-06T15:04:00.074Z,94.30
2017-11-06T15:07:10.204Z,94.00
2017-11-06T15:10:19.652Z,94.00
2017-11-06T15:13:29.713Z,94.20
2017-11-06T15:16:40.744Z,94.40
2017-11-06T15:19:51.128Z,94.20
2017-11-06T15:23:00.861Z,93.50
2017-11-06T15:26:11.490Z,93.70
2017-11-06T15:29:21.403Z,93.80
2017-11-06T15:32:31.367Z,93.80
2017-11-06T15:35:41.364Z,94.10
2017-11-06T15:38:51.138Z,94.30
2017-11-06T15:42:01.263Z,94.50
2017-11-06T15:45:11.173Z,94.30
2017-11-06T15:48:21.073Z,94.50
2017-11-06T15:51:31.207Z,94.40
2017-11-06T15:54:41.256Z,94.20
2017-11-06T15:57:51.119Z,94.50
2017-11-06T16:01:01.433Z,94.50
2017-11-06T16:04:11.480Z,94.60
2017-11-06T16:07:21.992Z,95.00
2017-11-06T16:10:32.296Z,94.70
2017-11-06T16:13:42.178Z,94.80
2017-11-06T16:16:52.504Z,94.90
2017-11-06T16:20:02.684Z,95.00
2017-11-06T16:23:12.723Z,95.30
2017-11-06T16:26:24.171Z,95.40
2017-11-06T16:29:34.571Z,95.40
2017-11-06T16:32:44.624Z,95.10
2017-11-06T16:35:54.574Z,95.60
2017-11-06T16:39:04.972Z,95.80
2017-11-06T16:42:15.648Z,95.80
2017-11-06T16:45:25.924Z,96.00
2017-11-06T16:48:36.215Z,95.80
2017-11-06T16:51:46.238Z,96.00
2017-11-06T16:54:57.587Z,96.00
2017-11-06T16:58:07.643Z,96.10
2017-11-06T17:01:17.721Z,96.00
2017-11-06T17:04:27.655Z,96.10
2017-11-06T17:07:38.327Z,96.30
2017-11-06T17:10:48.441Z,96.30
2017-11-06T17:13:58.335Z,96.30
2017-11-06T17:17:08.255Z,96.70
2017-11-06T17:20:18.600Z,96.70
2017-11-06T17:23:29.466Z,96.80
2017-11-06T17:26:39.876Z,96.80
2017-11-06T17:29:50.417Z,96.30
2017-11-06T17:33:00.559Z,96.30
2017-11-06T17:36:11.550Z,96.30
2017-11-06T17:39:21.780Z,96.30
2017-11-06T17:42:31.868Z,96.70
2017-11-06T17:45:41.859Z,96.50
2017-11-06T17:48:51.924Z,96.60
2017-11-06T17:52:02.187Z,96.80
2017-11-06T17:55:12.065Z,96.60
2017-11-06T17:58:21.976Z,96.40
2017-11-06T18:01:31.929Z,96.30
2017-11-06T18:04:42.091Z,96.20
2017-11-06T18:07:51.840Z,96.50
2017-11-06T18:11:01.953Z,96.70
2017-11-06T18:14:11.850Z,96.90
2017-11-06T18:17:21.808Z,97.00
2017-11-06T18:20:31.651Z,96.60
2017-11-06T18:23:42.379Z,96.70
2017-11-06T18:26:53.439Z,96.80
2017-11-06T18:30:03.356Z,96.80
2017-11-06T18:33:13.718Z,96.60
2017-11-06T18:36:23.771Z,96.60
2017-11-06T18:39:34.436Z,96.60
2017-11-06T18:42:44.550Z,96.70
2017-11-06T18:45:55.996Z,96.90
2017-11-06T18:49:06.571Z,96.90
2017-11-06T18:52:16.415Z,96.80
2017-11-06T18:55:27.484Z,96.60
2017-11-06T18:58:37.551Z,96.90
2017-11-06T19:01:47.654Z,96.80
2017-11-06T19:04:58.804Z,96.90
2017-11-06T19:08:08.567Z,96.80
2017-11-06T19:11:18.523Z,96.90
2017-11-06T19:14:28.576Z,96.90
2017-11-06T19:17:38.920Z,97.10
2017-11-06T19:20:49.237Z,97.00
2017-11-06T19:23:59.267Z,97.10
2017-11-06T19:27:09.348Z,97.10
2017-11-06T19:30:19.292Z,97.10
2017-11-06T19:33:29.553Z,97.10
2017-11-06T19:36:40.295Z,97.10
2017-11-06T19:39:50.324Z,97.20
2017-11-06T19:43:01.209Z,97.20
2017-11-06T19:46:11.520Z,97.10
2017-11-06T19:49:21.503Z,97.30
2017-11-06T19:52:31.687Z,97.40
2017-11-06T19:55:41.647Z,97.40
2017-11-06T19:58:51.823Z,97.70
2017-11-06T20:02:01.888Z,97.70
2017-11-06T20:05:12.068Z,97.80
2017-11-06T20:08:22.165Z,97.70
2017-11-06T20:11:31.888Z,97.70
2017-11-06T20:14:41.868Z,97.70
2017-11-06T20:17:52.308Z,97.90
2017-11-06T20:21:03.028Z,98.00
2017-11-06T20:24:13.373Z,97.90
2017-11-06T20:27:23.636Z,97.90
2017-11-06T20:30:33.712Z,97.80
2017-11-06T20:33:43.568Z,97.90
2017-11-06T20:36:53.420Z,98.00
2017-11-06T20:40:03.296Z,98.00
2017-11-06T20:43:13.853Z,97.90
2017-11-06T20:46:23.575Z,97.90
2017-11-06T20:49:33.471Z,97.70
2017-11-06T20:52:43.512Z,97.90
2017-11-06T20:55:54.064Z,97.90
2017-11-06T20:59:04.137Z,97.90
2017-11-06T21:02:14.333Z,97.90
2017-11-06T21:05:24.628Z,98.00
2017-11-06T21:08:34.378Z,97.80
2017-11-06T21:11:44.783Z,98.00
2017-11-06T21:14:54.739Z,98.00
2017-11-06T21:18:04.409Z,98.20
2017-11-06T21:21:14.665Z,98.10
2017-11-06T21:24:24.780Z,98.10
2017-11-06T21:27:34.775Z,98.00
2017-11-06T21:30:51.147Z,97.90
2017-11-06T21:34:01.408Z,97.90
2017-11-06T21:37:11.566Z,97.90
2017-11-06T21:40:21.973Z,97.80
2017-11-06T21:43:32.436Z,97.70
2017-11-06T21:46:42.776Z,97.80
2017-11-06T21:49:52.982Z,97.70
2017-11-06T21:53:03.023Z,97.70
2017-11-06T21:56:13.146Z,97.80
2017-11-06T21:59:23.167Z,97.80
2017-11-06T22:02:32.916Z,97.80
2017-11-06T22:05:42.701Z,97.70
2017-11-06T22:08:52.491Z,97.80
2017-11-06T22:12:03.121Z,97.60
2017-11-06T22:15:12.869Z,97.80
2017-11-06T22:18:22.852Z,97.70
2017-11-06T22:21:32.800Z,97.70
2017-11-06T22:24:42.844Z,97.70
2017-11-06T22:27:53.711Z,97.70
2017-11-06T22:31:03.907Z,97.70
2017-11-06T22:34:13.737Z,97.70
2017-11-06T22:37:24.047Z,97.80
2017-11-06T22:40:34.203Z,97.40
2017-11-06T22:43:45.668Z,97.40
2017-11-06T22:46:56.156Z,97.40
2017-11-06T22:50:06.649Z,97.50
2017-11-06T22:53:17.253Z,97.60
2017-11-06T22:56:26.948Z,97.60
2017-11-06T22:59:36.962Z,97.70
2017-11-06T23:02:47.009Z,97.60
2017-11-06T23:05:56.740Z,97.50
2017-11-06T23:09:07.060Z,97.50
2017-11-06T23:12:17.782Z,97.70
2017-11-06T23:15:27.612Z,97.70
2017-11-06T23:18:37.548Z,97.80
2017-11-06T23:21:47.784Z,97.80
2017-11-06T23:24:58.060Z,97.90
2017-11-06T23:28:08.268Z,97.90
2017-11-06T23:31:18.585Z,97.80
2017-11-06T23:34:28.250Z,97.80
2017-11-06T23:37:37.960Z,97.80
2017-11-06T23:40:47.704Z,97.90
2017-11-06T23:43:57.816Z,97.90
2017-11-06T23:47:07.836Z,97.80
2017-11-06T23:50:17.700Z,97.70
2017-11-06T23:53:28.058Z,97.60
2017-11-06T23:56:38.687Z,97.80
2017-11-06T23:59:48.602Z,97.80
